createdAt,value
2019-05-26T00:00:58.320Z,97294.81
2019-05-26T00:03:24.831Z,97293.27
2019-05-26T00:05:51.724Z,97295.88
2019-05-26T00:08:18.421Z,97294.22
2019-05-26T00:10:45.289Z,97283.28
2019-05-26T00:13:11.926Z,97289.70
2019-05-26T00:15:38.564Z,97283.31
2019-05-26T00:18:05.439Z,97275.25
2019-05-26T00:20:32.049Z,97274.63
2019-05-26T00:22:59.273Z,97273.08
2019-05-26T00:25:25.872Z,97279.70
2019-05-26T00:27:52.364Z,97271.33
2019-05-26T00:30:19.104Z,97264.72
2019-05-26T00:32:45.824Z,97272.98
2019-05-26T00:35:12.941Z,97262.70
2019-05-26T00:37:49.186Z,97266.22
2019-05-26T00:40:08.321Z,97264.08
2019-05-26T00:42:34.973Z,97263.09
2019-05-26T00:45:01.694Z,97261.77
2019-05-26T00:47:28.543Z,97263.63
2019-05-26T00:49:55.529Z,97263.91
2019-05-26T00:52:22.195Z,97266.91
2019-05-26T00:54:48.789Z,97269.62
2019-05-26T00:57:15.631Z,97269.28
2019-05-26T00:59:42.556Z,97269.84
2019-05-26T01:02:09.662Z,97270.78
2019-05-26T01:04:36.242Z,97265.69
2019-05-26T01:07:04.151Z,97265.70
2019-05-26T01:09:30.719Z,97268.20
2019-05-26T01:11:57.609Z,97269.34
2019-05-26T01:14:24.744Z,97274.31
2019-05-26T01:16:55.435Z,97270.84
2019-05-26T01:19:20.051Z,97270.19
2019-05-26T01:21:46.779Z,97270.86
2019-05-26T01:24:13.751Z,97275.05
2019-05-26T01:26:40.377Z,97277.44
2019-05-26T01:29:07.253Z,97275.05
2019-05-26T01:31:33.895Z,97279.97
2019-05-26T01:34:02.406Z,97272.68
2019-05-26T01:36:29.235Z,97271.81
2019-05-26T01:38:55.879Z,97275.77
2019-05-26T01:41:22.596Z,97275.86
2019-05-26T01:43:49.460Z,97275.05
2019-05-26T01:46:16.216Z,97272.96
2019-05-26T01:48:42.939Z,97273.86
2019-05-26T01:51:09.871Z,97269.56
2019-05-26T01:53:36.565Z,97271.14
2019-05-26T01:56:03.344Z,97270.41
2019-05-26T01:58:32.102Z,97275.23
2019-05-26T02:00:59.966Z,97274.17
2019-05-26T02:03:26.733Z,97267.63
2019-05-26T02:05:53.516Z,97273.87
2019-05-26T02:08:20.249Z,97276.33
2019-05-26T02:10:46.881Z,97275.90
2019-05-26T02:13:13.568Z,97273.52
2019-05-26T02:15:40.560Z,97268.59
2019-05-26T02:18:07.285Z,97269.43
2019-05-26T02:20:34.351Z,97269.15
2019-05-26T02:23:01.214Z,97270.89
2019-05-26T02:25:28.251Z,97270.72
2019-05-26T02:27:55.084Z,97265.28
2019-05-26T02:30:21.751Z,97267.80
2019-05-26T02:32:48.678Z,97273.94
2019-05-26T02:35:15.538Z,97270.76
2019-05-26T02:37:42.259Z,97265.28
2019-05-26T02:40:08.940Z,97270.91
2019-05-26T02:42:35.773Z,97269.81
2019-05-26T02:45:02.433Z,97275.41
2019-05-26T02:47:29.362Z,97273.27
2019-05-26T02:49:56.239Z,97269.44
2019-05-26T02:52:23.133Z,97268.77
2019-05-26T02:54:49.792Z,97275.02
2019-05-26T02:57:16.542Z,97268.63
2019-05-26T02:59:43.825Z,97265.66
2019-05-26T03:02:10.686Z,97268.31
2019-05-26T03:04:37.655Z,97277.16
2019-05-26T03:07:04.612Z,97273.03
2019-05-26T03:09:31.622Z,97274.84
2019-05-26T03:11:59.502Z,97273.37
2019-05-26T03:14:26.170Z,97272.92
2019-05-26T03:16:53.214Z,97277.38
2019-05-26T03:19:19.952Z,97272.94
2019-05-26T03:21:46.682Z,97276.18
2019-05-26T03:24:13.660Z,97278.27
2019-05-26T03:26:40.315Z,97272.52
2019-05-26T03:29:07.266Z,97281.06
2019-05-26T03:31:33.956Z,97288.58
2019-05-26T03:34:01.077Z,97284.19
2019-05-26T03:36:28.137Z,97290.59
2019-05-26T03:38:55.164Z,97288.55
2019-05-26T03:41:22.181Z,97289.30
2019-05-26T03:43:48.904Z,97291.75
2019-05-26T03:46:15.612Z,97297.63
2019-05-26T03:48:42.459Z,97291.59
2019-05-26T03:51:09.605Z,97291.95
2019-05-26T03:53:36.285Z,97298.03
2019-05-26T03:56:03.043Z,97303.31
2019-05-26T03:58:29.724Z,97302.27
2019-05-26T04:00:56.392Z,97304.13
2019-05-26T04:03:23.234Z,97304.39
2019-05-26T04:05:49.931Z,97302.83
2019-05-26T04:08:16.586Z,97294.80
2019-05-26T04:10:43.264Z,97300.22
2019-05-26T04:13:09.949Z,97306.42
2019-05-26T04:15:36.604Z,97303.84
2019-05-26T04:18:03.453Z,97304.77
2019-05-26T04:20:30.362Z,97303.69
2019-05-26T04:22:57.012Z,97304.71
2019-05-26T04:25:24.126Z,97304.88
2019-05-26T04:27:50.772Z,97320.05
2019-05-26T04:30:18.710Z,97317.59
2019-05-26T04:32:45.387Z,97313.42
2019-05-26T04:35:12.062Z,97318.99
2019-05-26T04:37:38.736Z,97319.16
2019-05-26T04:40:25.010Z,97314.66
2019-05-26T04:42:34.179Z,97320.16
2019-05-26T04:45:00.847Z,97316.31
2019-05-26T04:47:27.798Z,97312.45
2019-05-26T04:49:54.455Z,97313.86
2019-05-26T04:52:21.124Z,97322.70
2019-05-26T04:54:47.892Z,97318.09
2019-05-26T04:57:14.539Z,97323.44
2019-05-26T04:59:41.488Z,97325.14
2019-05-26T05:02:08.311Z,97317.61
2019-05-26T05:04:34.950Z,97324.64
2019-05-26T05:07:01.899Z,97316.69
2019-05-26T05:09:28.745Z,97316.74
2019-05-26T05:11:55.413Z,97324.16
2019-05-26T05:14:22.027Z,97325.54
2019-05-26T05:16:50.142Z,97328.98
2019-05-26T05:19:17.645Z,97331.11
2019-05-26T05:21:44.501Z,97337.58
2019-05-26T05:24:11.562Z,97336.84
2019-05-26T05:26:38.302Z,97339.28
2019-05-26T05:29:05.268Z,97343.13
2019-05-26T05:31:32.054Z,97339.34
2019-05-26T05:33:58.662Z,97337.86
2019-05-26T05:36:25.308Z,97337.45
2019-05-26T05:38:52.755Z,97343.03
2019-05-26T05:41:19.443Z,97335.95
2019-05-26T05:43:46.257Z,97343.67
2019-05-26T05:46:13.251Z,97343.58
2019-05-26T05:48:39.893Z,97339.20
2019-05-26T05:51:06.829Z,97342.48
2019-05-26T05:53:33.801Z,97344.05
2019-05-26T05:56:00.690Z,97351.53
2019-05-26T05:58:27.688Z,97351.66
2019-05-26T06:00:54.707Z,97357.58
2019-05-26T06:03:21.663Z,97355.63
2019-05-26T06:05:48.291Z,97355.66
2019-05-26T06:08:15.056Z,97356.52
2019-05-26T06:10:41.780Z,97359.55
2019-05-26T06:13:09.916Z,97350.12
2019-05-26T06:15:36.616Z,97351.43
2019-05-26T06:18:03.614Z,97357.70
2019-05-26T06:20:30.413Z,97356.68
2019-05-26T06:22:57.473Z,97357.27
2019-05-26T06:25:24.732Z,97362.89
2019-05-26T06:27:51.743Z,97362.31
2019-05-26T06:30:21.818Z,97359.30
2019-05-26T06:32:48.358Z,97358.18
2019-05-26T06:35:14.979Z,97364.05
2019-05-26T06:37:44.263Z,97361.05
2019-05-26T06:40:10.841Z,97356.33
2019-05-26T06:42:37.460Z,97354.63
2019-05-26T06:45:05.015Z,97355.39
2019-05-26T06:47:31.789Z,97353.91
2019-05-26T06:49:58.717Z,97352.66
2019-05-26T06:52:25.546Z,97351.81
2019-05-26T06:54:52.500Z,97349.39
2019-05-26T06:57:20.613Z,97351.63
2019-05-26T06:59:48.298Z,97352.62
2019-05-26T07:02:16.839Z,97349.71
2019-05-26T07:04:43.774Z,97352.03
2019-05-26T07:07:10.778Z,97342.94
2019-05-26T07:09:37.758Z,97344.98
2019-05-26T07:12:04.804Z,97347.10
2019-05-26T07:14:31.651Z,97350.56
2019-05-26T07:16:58.657Z,97351.28
2019-05-26T07:19:25.598Z,97352.61
2019-05-26T07:21:52.649Z,97350.94
2019-05-26T07:24:20.932Z,97352.09
2019-05-26T07:26:47.839Z,97356.89
2019-05-26T07:29:14.990Z,97363.02
2019-05-26T07:31:41.903Z,97359.73
2019-05-26T07:34:08.841Z,97363.48
2019-05-26T07:36:36.361Z,97363.23
2019-05-26T07:39:03.580Z,97363.33
2019-05-26T07:41:30.560Z,97372.07
2019-05-26T07:43:57.558Z,97367.88
2019-05-26T07:46:24.476Z,97367.10
2019-05-26T07:48:51.155Z,97372.53
2019-05-26T07:51:18.620Z,97368.64
2019-05-26T07:53:45.526Z,97368.48
2019-05-26T07:56:12.453Z,97364.34
2019-05-26T07:58:39.325Z,97364.01
2019-05-26T08:01:06.382Z,97366.67
2019-05-26T08:03:33.316Z,97357.17
2019-05-26T08:06:00.836Z,97359.95
2019-05-26T08:08:27.743Z,97355.73
2019-05-26T08:10:54.694Z,97360.27
2019-05-26T08:13:21.837Z,97356.64
2019-05-26T08:15:48.461Z,97346.41
2019-05-26T08:18:15.597Z,97341.73
2019-05-26T08:20:42.586Z,97341.02
2019-05-26T08:23:09.564Z,97335.98
2019-05-26T08:25:38.041Z,97332.86
2019-05-26T08:28:05.124Z,97340.72
2019-05-26T08:30:32.064Z,97336.46
2019-05-26T08:32:59.382Z,97332.73
2019-05-26T08:35:26.400Z,97346.12
2019-05-26T08:37:53.246Z,97340.19
2019-05-26T08:40:20.247Z,97337.34
2019-05-26T08:42:47.295Z,97337.02
2019-05-26T08:45:14.580Z,97336.26
2019-05-26T08:47:41.807Z,97336.61
2019-05-26T08:50:08.880Z,97333.12
2019-05-26T08:52:36.183Z,97331.17
2019-05-26T08:55:03.134Z,97326.61
2019-05-26T08:57:30.086Z,97330.70
2019-05-26T08:59:57.315Z,97326.34
2019-05-26T09:02:24.014Z,97329.74
2019-05-26T09:04:51.020Z,97332.10
2019-05-26T09:07:17.722Z,97329.80
2019-05-26T09:09:44.697Z,97325.73
2019-05-26T09:12:11.942Z,97327.70
2019-05-26T09:14:38.885Z,97319.94
2019-05-26T09:17:05.837Z,97321.67
2019-05-26T09:19:32.946Z,97318.93
2019-05-26T09:21:59.878Z,97315.22
2019-05-26T09:24:26.591Z,97319.77
2019-05-26T09:26:53.565Z,97310.08
2019-05-26T09:29:20.458Z,97313.30
2019-05-26T09:31:47.184Z,97315.95
2019-05-26T09:34:17.823Z,97309.47
2019-05-26T09:36:44.748Z,97305.55
2019-05-26T09:39:11.830Z,97304.00
2019-05-26T09:41:39.269Z,97308.83
2019-05-26T09:44:06.209Z,97298.64
2019-05-26T09:46:33.184Z,97298.64
2019-05-26T09:49:01.035Z,97301.22
2019-05-26T09:51:27.891Z,97297.84
2019-05-26T09:54:01.792Z,97301.14
2019-05-26T09:56:25.321Z,97299.66
2019-05-26T09:58:52.240Z,97312.48
2019-05-26T10:01:19.273Z,97304.14
2019-05-26T10:03:46.388Z,97301.14
2019-05-26T10:06:13.099Z,97307.53
2019-05-26T10:08:40.077Z,97299.98
2019-05-26T10:11:07.100Z,97296.46
2019-05-26T10:13:34.022Z,97298.91
2019-05-26T10:16:00.692Z,97298.98
2019-05-26T10:18:27.642Z,97295.59
2019-05-26T10:20:57.043Z,97295.11
2019-05-26T10:23:24.885Z,97287.19
2019-05-26T10:25:53.062Z,97280.61
2019-05-26T10:28:22.902Z,97272.84
2019-05-26T10:30:49.955Z,97284.19
2019-05-26T10:33:17.061Z,97285.61
2019-05-26T10:35:44.279Z,97280.22
2019-05-26T10:38:11.416Z,97275.03
2019-05-26T10:40:38.316Z,97277.19
2019-05-26T10:43:05.206Z,97276.69
2019-05-26T10:45:34.263Z,97272.95
2019-05-26T10:48:00.840Z,97277.71
2019-05-26T10:50:27.972Z,97274.03
2019-05-26T10:52:55.187Z,97267.23
2019-05-26T10:55:21.865Z,97271.83
2019-05-26T10:57:48.740Z,97268.94
2019-05-26T11:00:15.656Z,97263.45
2019-05-26T11:02:42.582Z,97270.88
2019-05-26T11:05:09.750Z,97267.83
2019-05-26T11:07:36.626Z,97272.09
2019-05-26T11:10:03.675Z,97264.52
2019-05-26T11:12:30.594Z,97263.97
2019-05-26T11:14:57.475Z,97258.43
2019-05-26T11:17:25.985Z,97257.58
2019-05-26T11:19:53.231Z,97257.63
2019-05-26T11:22:19.971Z,97257.13
2019-05-26T11:24:47.665Z,97254.89
2019-05-26T11:27:15.622Z,97246.02
2019-05-26T11:29:42.613Z,97242.44
2019-05-26T11:32:09.747Z,97239.33
2019-05-26T11:34:36.711Z,97240.95
2019-05-26T11:37:03.718Z,97229.13
2019-05-26T11:39:30.751Z,97233.44
2019-05-26T11:44:27.352Z,97226.84
2019-05-26T11:46:54.585Z,97220.63
2019-05-26T11:49:21.737Z,97220.05
2019-05-26T11:51:48.616Z,97208.91
2019-05-26T11:54:15.573Z,97213.70
2019-05-26T11:56:42.462Z,97206.83
2019-05-26T11:59:09.361Z,97204.52
2019-05-26T12:01:36.129Z,97200.22
2019-05-26T12:04:03.259Z,97202.67
2019-05-26T12:06:30.130Z,97200.77
2019-05-26T12:08:57.111Z,97200.16
2019-05-26T12:11:24.288Z,97201.89
2019-05-26T12:13:51.181Z,97199.20
2019-05-26T12:16:18.540Z,97200.69
2019-05-26T12:18:45.452Z,97199.00
2019-05-26T12:21:12.567Z,97194.61
2019-05-26T12:23:39.476Z,97196.28
2019-05-26T12:26:06.363Z,97190.10
2019-05-26T12:28:33.246Z,97183.66
2019-05-26T12:31:00.307Z,97187.17
2019-05-26T12:33:26.954Z,97187.73
2019-05-26T12:35:53.844Z,97179.42
2019-05-26T12:38:22.651Z,97175.95
2019-05-26T12:40:49.586Z,97170.92
2019-05-26T12:43:16.475Z,97164.36
2019-05-26T12:45:43.531Z,97172.64
2019-05-26T12:48:10.405Z,97172.20
2019-05-26T12:50:37.591Z,97169.79
2019-05-26T12:53:04.727Z,97162.77
2019-05-26T12:55:31.566Z,97156.19
2019-05-26T12:57:58.467Z,97161.27
2019-05-26T13:00:26.129Z,97152.92
2019-05-26T13:02:53.021Z,97144.26
2019-05-26T13:05:19.885Z,97152.08
2019-05-26T13:07:46.649Z,97156.63
2019-05-26T13:10:13.545Z,97146.09
2019-05-26T13:12:40.230Z,97143.45
2019-05-26T13:17:44.631Z,97135.34
2019-05-26T13:20:11.582Z,97131.66
2019-05-26T13:22:38.811Z,97132.61
2019-05-26T13:25:06.728Z,97128.44
2019-05-26T13:27:33.615Z,97123.44
2019-05-26T13:30:00.545Z,97124.23
2019-05-26T13:32:27.437Z,97119.47
2019-05-26T13:34:54.522Z,97123.49
2019-05-26T13:37:21.453Z,97121.06
2019-05-26T13:39:48.125Z,97117.73
2019-05-26T13:42:24.900Z,97118.24
2019-05-26T13:44:51.944Z,97119.29
2019-05-26T13:47:26.136Z,97121.86
2019-05-26T13:49:47.496Z,97114.02
2019-05-26T13:52:14.386Z,97124.25
2019-05-26T13:54:41.150Z,97122.45
2019-05-26T13:57:08.041Z,97122.23
2019-05-26T13:59:35.026Z,97128.27
2019-05-26T14:02:02.046Z,97126.59
2019-05-26T14:04:28.703Z,97129.97
2019-05-26T14:06:55.676Z,97126.39
2019-05-26T14:09:22.481Z,97130.28
2019-05-26T14:11:49.105Z,97126.69
2019-05-26T14:14:15.997Z,97118.70
2019-05-26T14:16:42.644Z,97130.20
2019-05-26T14:19:09.522Z,97128.45
2019-05-26T14:21:36.413Z,97130.88
2019-05-26T14:24:03.358Z,97134.08
2019-05-26T14:26:30.278Z,97131.80
2019-05-26T14:28:57.117Z,97128.70
2019-05-26T14:31:24.017Z,97129.15
2019-05-26T14:33:50.961Z,97137.21
2019-05-26T14:36:17.868Z,97128.88
2019-05-26T14:38:45.077Z,97123.94
2019-05-26T14:41:11.907Z,97125.02
2019-05-26T14:43:38.817Z,97123.72
2019-05-26T14:46:05.593Z,97127.20
2019-05-26T14:48:32.484Z,97132.28
2019-05-26T14:50:59.105Z,97136.90
2019-05-26T14:53:27.037Z,97137.45
2019-05-26T14:55:53.871Z,97128.31
2019-05-26T14:58:21.030Z,97126.01
2019-05-26T15:00:51.639Z,97123.47
2019-05-26T15:03:18.485Z,97121.56
2019-05-26T15:05:45.374Z,97120.11
2019-05-26T15:10:48.999Z,97120.20
2019-05-26T15:13:15.994Z,97117.14
2019-05-26T15:15:48.194Z,97113.45
2019-05-26T15:18:14.898Z,97117.37
2019-05-26T15:20:42.082Z,97114.72
2019-05-26T15:23:13.487Z,97112.64
2019-05-26T15:25:40.127Z,97115.20
2019-05-26T15:28:07.300Z,97116.42
2019-05-26T15:33:12.154Z,97112.20
2019-05-26T15:35:39.023Z,97112.10
2019-05-26T15:40:43.736Z,97115.05
2019-05-26T15:43:13.125Z,97107.01
2019-05-26T15:45:44.998Z,97103.34
2019-05-26T15:48:11.893Z,97099.67
2019-05-26T15:50:38.784Z,97103.83
2019-05-26T15:55:44.294Z,97105.09
2019-05-26T15:58:11.206Z,97106.48
2019-05-26T16:00:42.373Z,97112.17
2019-05-26T16:03:09.263Z,97111.41
2019-05-26T16:05:38.048Z,97104.95
2019-05-26T16:15:47.850Z,97098.36
2019-05-26T16:18:14.732Z,97098.25
2019-05-26T16:23:17.748Z,97091.14
2019-05-26T16:25:44.736Z,97092.33
2019-05-26T16:28:11.643Z,97095.25
2019-05-26T16:30:38.239Z,97093.80
2019-05-26T16:33:05.410Z,97089.87
2019-05-26T16:35:32.091Z,97093.66
2019-05-26T16:37:59.095Z,97088.25
2019-05-26T16:40:25.982Z,97094.83
2019-05-26T16:42:53.685Z,97096.53
2019-05-26T16:45:20.310Z,97096.25
2019-05-26T16:47:47.219Z,97094.67
2019-05-26T16:50:15.050Z,97092.25
2019-05-26T16:52:42.215Z,97092.36
2019-05-26T16:55:09.075Z,97090.11
2019-05-26T16:57:36.705Z,97093.03
2019-05-26T17:00:03.571Z,97093.72
2019-05-26T17:02:30.219Z,97091.72
2019-05-26T17:04:57.801Z,97101.02
2019-05-26T17:07:24.941Z,97103.03
2019-05-26T17:09:51.843Z,97103.52
2019-05-26T17:12:18.771Z,97091.80
2019-05-26T17:14:46.364Z,97094.33
2019-05-26T20:04:43.987Z,97186.39
2019-05-26T20:07:10.700Z,97183.97
2019-05-26T20:09:37.598Z,97186.98
2019-05-26T20:12:04.270Z,97188.94
2019-05-26T20:14:31.536Z,97186.88
2019-05-26T20:16:58.518Z,97188.77
2019-05-26T20:19:25.493Z,97199.73
2019-05-26T20:21:52.411Z,97201.27
2019-05-26T20:24:19.345Z,97199.91
2019-05-26T20:26:45.973Z,97200.70
2019-05-26T20:29:12.945Z,97193.52
2019-05-26T20:31:39.901Z,97195.16
2019-05-26T20:34:06.837Z,97194.92
2019-05-26T20:36:33.762Z,97191.20
2019-05-26T20:39:00.966Z,97193.10
2019-05-26T20:41:27.692Z,97199.77
2019-05-26T20:43:54.928Z,97194.14
2019-05-26T20:46:22.685Z,97196.04
2019-05-26T20:48:49.660Z,97197.13
2019-05-26T20:51:16.591Z,97191.52
2019-05-26T20:53:43.517Z,97192.31
2019-05-26T20:56:10.196Z,97194.18
2019-05-26T20:58:37.420Z,97187.77
2019-05-26T21:01:04.425Z,97192.86
2019-05-26T21:03:31.348Z,97185.62
2019-05-26T21:05:58.066Z,97182.95
2019-05-26T21:08:24.944Z,97179.72
2019-05-26T21:10:51.695Z,97175.45
2019-05-26T21:13:18.217Z,97177.08
2019-05-26T21:15:44.864Z,97170.38
2019-05-26T21:18:11.474Z,97168.48
2019-05-26T21:20:38.036Z,97173.87
2019-05-26T21:23:05.557Z,97169.84
2019-05-26T21:25:32.204Z,97166.39
2019-05-26T21:27:59.115Z,97173.60
2019-05-26T21:30:26.718Z,97172.80
2019-05-26T21:32:53.624Z,97173.33
2019-05-26T21:35:21.404Z,97177.33
2019-05-26T21:37:48.965Z,97178.12
2019-05-26T21:40:16.186Z,97183.72
2019-05-26T21:42:43.124Z,97181.03
2019-05-26T21:45:10.531Z,97176.21
2019-05-26T21:47:37.404Z,97177.31
2019-05-26T21:50:04.327Z,97173.83
2019-05-26T21:52:31.899Z,97179.69
2019-05-26T21:54:59.108Z,97176.73
2019-05-26T21:57:26.019Z,97178.34
2019-05-26T21:59:53.087Z,97188.25
2019-05-26T22:02:19.991Z,97188.50
2019-05-26T22:04:46.913Z,97181.81
2019-05-26T22:07:13.974Z,97186.34
2019-05-26T22:09:41.232Z,97192.50
2019-05-26T22:12:08.130Z,97186.56
2019-05-26T22:14:35.076Z,97186.56
2019-05-26T22:17:02.008Z,97197.46
2019-05-26T22:19:28.960Z,97195.30
2019-05-26T22:21:56.323Z,97199.55
2019-05-26T22:24:22.940Z,97195.23
2019-05-26T22:29:16.923Z,97191.19
2019-05-26T22:31:43.913Z,97191.17
2019-05-26T22:34:10.801Z,97185.49
2019-05-26T22:36:38.201Z,97187.63
2019-05-26T22:39:05.102Z,97184.24
2019-05-26T22:41:32.016Z,97182.72
2019-05-26T22:43:59.912Z,97180.87
2019-05-26T22:46:27.107Z,97172.25
2019-05-26T22:48:54.061Z,97170.10
2019-05-26T22:51:21.547Z,97169.81
2019-05-26T22:53:48.506Z,97167.33
2019-05-26T22:56:15.395Z,97169.66
2019-05-26T22:58:42.397Z,97167.02
2019-05-26T23:01:09.606Z,97160.60
2019-05-26T23:03:36.508Z,97157.34
2019-05-26T23:06:04.567Z,97155.70
2019-05-26T23:08:31.479Z,97155.20
2019-05-26T23:10:58.428Z,97148.99
2019-05-26T23:13:25.894Z,97154.79
2019-05-26T23:15:52.534Z,97154.42
2019-05-26T23:18:19.460Z,97142.16
2019-05-26T23:20:47.798Z,97145.91
2019-05-26T23:23:15.018Z,97148.86
2019-05-26T23:25:41.900Z,97149.75
2019-05-26T23:28:09.709Z,97147.84
2019-05-26T23:30:36.643Z,97147.67
2019-05-26T23:33:03.579Z,97140.16
2019-05-26T23:35:31.746Z,97144.36
2019-05-26T23:37:58.654Z,97137.73
2019-05-26T23:40:25.593Z,97135.23
2019-05-26T23:42:52.274Z,97126.00
2019-05-26T23:45:19.200Z,97122.61
2019-05-26T23:47:46.023Z,97123.76
2019-05-26T23:50:14.222Z,97114.67
2019-05-26T23:52:41.152Z,97113.13
2019-05-26T23:55:07.915Z,97101.45
2019-05-26T23:57:35.166Z,97102.23
